sensor_id;sensor_type;location;lat;lon;timestamp;pressure;altitude;pressure_sealevel;temperature;humidity
5574;BME280;2563;52.242;7.956;2023-03-18T00:01:49;100041.31;;;11.03;100.00
5574;BME280;2563;52.242;7.956;2023-03-18T00:04:15;100061.91;;;11.03;100.00
5574;BME280;2563;52.242;7.956;2023-03-18T00:06:42;100064.44;;;11.04;100.00
5574;BME280;2563;52.242;7.956;2023-03-18T00:09:08;100055.13;;;11.00;100.00
5574;BME280;2563;52.242;7.956;2023-03-18T00:11:35;100050.00;;;10.99;100.00
5574;BME280;2563;52.242;7.956;2023-03-18T00:14:01;100051.72;;;11.00;100.00
5574;BME280;2563;52.242;7.956;2023-03-18T00:16:27;100055.09;;;11.02;100.00
5574;BME280;2563;52.242;7.956;2023-03-18T00:18:52;100050.78;;;11.02;100.00
5574;BME280;2563;52.242;7.956;2023-03-18T00:21:18;100060.13;;;11.05;100.00
5574;BME280;2563;52.242;7.956;2023-03-18T00:23:44;100058.44;;;11.04;100.00
5574;BME280;2563;52.242;7.956;2023-03-18T00:26:09;100061.91;;;11.03;100.00
5574;BME280;2563;52.242;7.956;2023-03-18T00:28:36;100059.44;;;11.00;100.00
5574;BME280;2563;52.242;7.956;2023-03-18T00:31:10;100061.06;;;11.02;100.00
5574;BME280;2563;52.242;7.956;2023-03-18T00:33:38;100058.66;;;10.98;100.00
5574;BME280;2563;52.242;7.956;2023-03-18T00:36:08;100063.91;;;10.95;100.00
5574;BME280;2563;52.242;7.956;2023-03-18T00:38:35;100068.84;;;11.01;100.00
5574;BME280;2563;52.242;7.956;2023-03-18T00:41:01;100075.00;;;10.97;100.00
5574;BME280;2563;52.242;7.956;2023-03-18T00:43:39;100080.31;;;10.92;100.00
5574;BME280;2563;52.242;7.956;2023-03-18T00:46:31;100082.91;;;10.91;100.00
5574;BME280;2563;52.242;7.956;2023-03-18T00:49:00;100072.81;;;10.84;100.00
5574;BME280;2563;52.242;7.956;2023-03-18T00:51:29;100076.44;;;10.79;100.00
5574;BME280;2563;52.242;7.956;2023-03-18T00:53:57;100078.28;;;10.75;100.00
5574;BME280;2563;52.242;7.956;2023-03-18T00:56:26;100081.72;;;10.74;100.00
5574;BME280;2563;52.242;7.956;2023-03-18T00:58:52;100062.19;;;10.69;100.00
5574;BME280;2563;52.242;7.956;2023-03-18T01:01:19;100061.34;;;10.68;100.00
5574;BME280;2563;52.242;7.956;2023-03-18T01:03:46;100063.78;;;10.73;100.00
5574;BME280;2563;52.242;7.956;2023-03-18T01:06:16;100056.97;;;10.70;100.00
5574;BME280;2563;52.242;7.956;2023-03-18T01:08:42;100046.63;;;10.72;100.00
5574;BME280;2563;52.242;7.956;2023-03-18T01:11:09;100034.75;;;10.68;100.00
5574;BME280;2563;52.242;7.956;2023-03-18T01:13:35;100023.72;;;10.64;100.00
5574;BME280;2563;52.242;7.956;2023-03-18T01:16:02;100022.03;;;10.63;100.00
5574;BME280;2563;52.242;7.956;2023-03-18T01:18:28;100016.88;;;10.63;100.00
5574;BME280;2563;52.242;7.956;2023-03-18T01:20:54;100011.66;;;10.66;100.00
5574;BME280;2563;52.242;7.956;2023-03-18T01:23:19;99998.88;;;10.63;100.00
5574;BME280;2563;52.242;7.956;2023-03-18T01:25:45;99987.72;;;10.64;100.00
5574;BME280;2563;52.242;7.956;2023-03-18T01:28:12;99972.03;;;10.70;100.00
5574;BME280;2563;52.242;7.956;2023-03-18T01:30:37;99959.25;;;10.69;100.00
5574;BME280;2563;52.242;7.956;2023-03-18T01:33:03;99947.25;;;10.68;100.00
5574;BME280;2563;52.242;7.956;2023-03-18T01:35:30;99930.84;;;10.70;100.00
5574;BME280;2563;52.242;7.956;2023-03-18T01:37:57;99929.75;;;10.77;100.00
5574;BME280;2563;52.242;7.956;2023-03-18T01:40:24;99921.47;;;10.69;100.00
5574;BME280;2563;52.242;7.956;2023-03-18T01:42:57;99925.81;;;10.67;100.00
5574;BME280;2563;52.242;7.956;2023-03-18T01:45:25;99928.47;;;10.66;100.00
5574;BME280;2563;52.242;7.956;2023-03-18T01:47:53;99919.66;;;10.73;100.00
5574;BME280;2563;52.242;7.956;2023-03-18T01:50:23;99918.78;;;10.72;100.00
5574;BME280;2563;52.242;7.956;2023-03-18T01:52:54;99920.56;;;10.70;100.00
5574;BME280;2563;52.242;7.956;2023-03-18T01:55:25;99917.16;;;10.70;100.00
5574;BME280;2563;52.242;7.956;2023-03-18T01:57:51;99906.69;;;10.74;100.00
5574;BME280;2563;52.242;7.956;2023-03-18T02:00:17;99898.31;;;10.69;100.00
5574;BME280;2563;52.242;7.956;2023-03-18T02:02:45;99886.25;;;10.70;100.00
5574;BME280;2563;52.242;7.956;2023-03-18T02:05:16;99888.69;;;10.74;100.00
5574;BME280;2563;52.242;7.956;2023-03-18T02:07:43;99901.44;;;10.77;100.00
5574;BME280;2563;52.242;7.956;2023-03-18T02:10:22;99900.44;;;10.81;100.00
5574;BME280;2563;52.242;7.956;2023-03-18T02:12:57;99885.13;;;10.78;100.00
5574;BME280;2563;52.242;7.956;2023-03-18T02:15:25;99885.13;;;10.78;100.00
5574;BME280;2563;52.242;7.956;2023-03-18T02:23:11;99869.53;;;10.81;100.00
5574;BME280;2563;52.242;7.956;2023-03-18T02:25:51;99859.03;;;10.88;100.00
5574;BME280;2563;52.242;7.956;2023-03-18T02:28:22;99865.31;;;10.80;100.00
5574;BME280;2563;52.242;7.956;2023-03-18T02:30:52;99848.25;;;10.78;100.00
5574;BME280;2563;52.242;7.956;2023-03-18T02:33:20;99842.44;;;10.73;100.00
5574;BME280;2563;52.242;7.956;2023-03-18T02:35:53;99842.19;;;10.79;100.00
5574;BME280;2563;52.242;7.956;2023-03-18T02:38:19;99842.19;;;10.79;100.00
5574;BME280;2563;52.242;7.956;2023-03-18T02:40:44;99824.84;;;10.84;100.00
5574;BME280;2563;52.242;7.956;2023-03-18T02:45:54;99781.16;;;10.82;100.00
5574;BME280;2563;52.242;7.956;2023-03-18T02:48:27;99760.56;;;10.82;100.00
5574;BME280;2563;52.242;7.956;2023-03-18T02:50:55;99725.47;;;10.80;100.00
5574;BME280;2563;52.242;7.956;2023-03-18T02:53:21;99719.59;;;10.76;100.00
5574;BME280;2563;52.242;7.956;2023-03-18T02:55:47;99721.38;;;10.74;100.00
5574;BME280;2563;52.242;7.956;2023-03-18T02:58:12;99674.16;;;10.75;100.00
5574;BME280;2563;52.242;7.956;2023-03-18T03:00:37;99651.09;;;10.72;100.00
5574;BME280;2563;52.242;7.956;2023-03-18T03:03:04;99621.13;;;10.71;100.00
5574;BME280;2563;52.242;7.956;2023-03-18T03:05:30;99597.19;;;10.69;100.00
5574;BME280;2563;52.242;7.956;2023-03-18T03:07:55;99574.03;;;10.69;100.00
5574;BME280;2563;52.242;7.956;2023-03-18T03:10:21;99534.47;;;10.72;100.00
5574;BME280;2563;52.242;7.956;2023-03-18T03:12:46;99523.31;;;10.71;100.00
5574;BME280;2563;52.242;7.956;2023-03-18T03:15:13;99505.38;;;10.70;100.00
5574;BME280;2563;52.242;7.956;2023-03-18T03:17:39;99466.72;;;10.71;100.00
5574;BME280;2563;52.242;7.956;2023-03-18T03:20:06;99444.53;;;10.69;100.00
5574;BME280;2563;52.242;7.956;2023-03-18T03:22:33;99424.50;;;10.75;100.00
5574;BME280;2563;52.242;7.956;2023-03-18T03:25:00;99412.53;;;10.74;100.00
5574;BME280;2563;52.242;7.956;2023-03-18T03:27:29;99394.47;;;10.76;100.00
5574;BME280;2563;52.242;7.956;2023-03-18T03:29:54;99376.50;;;10.74;100.00
5574;BME280;2563;52.242;7.956;2023-03-18T03:32:20;99354.16;;;10.75;100.00
5574;BME280;2563;52.242;7.956;2023-03-18T03:34:46;99340.47;;;10.74;100.00
5574;BME280;2563;52.242;7.956;2023-03-18T03:37:12;99312.25;;;10.73;100.00
5574;BME280;2563;52.242;7.956;2023-03-18T03:39:37;99299.16;;;10.77;100.00
5574;BME280;2563;52.242;7.956;2023-03-18T03:42:03;99292.50;;;10.73;100.00
5574;BME280;2563;52.242;7.956;2023-03-18T03:44:28;99281.47;;;10.70;100.00
5574;BME280;2563;52.242;7.956;2023-03-18T03:46:54;99275.50;;;10.69;100.00
5574;BME280;2563;52.242;7.956;2023-03-18T03:49:19;99269.53;;;10.69;100.00
5574;BME280;2563;52.242;7.956;2023-03-18T03:51:45;99251.44;;;10.70;100.00
5574;BME280;2563;52.242;7.956;2023-03-18T03:54:11;99248.84;;;10.70;100.00
5574;BME280;2563;52.242;7.956;2023-03-18T03:56:41;99233.50;;;10.69;100.00
5574;BME280;2563;52.242;7.956;2023-03-18T03:59:07;99227.38;;;10.71;100.00
5574;BME280;2563;52.242;7.956;2023-03-18T04:01:34;99212.72;;;10.73;100.00
5574;BME280;2563;52.242;7.956;2023-03-18T04:03:59;99209.22;;;10.74;100.00
5574;BME280;2563;52.242;7.956;2023-03-18T04:06:27;99199.91;;;10.72;100.00
5574;BME280;2563;52.242;7.956;2023-03-18T04:08:52;99191.34;;;10.71;100.00
5574;BME280;2563;52.242;7.956;2023-03-18T04:11:17;99189.00;;;10.67;100.00
5574;BME280;2563;52.242;7.956;2023-03-18T04:13:43;99182.94;;;10.68;100.00
5574;BME280;2563;52.242;7.956;2023-03-18T04:16:08;99168.56;;;10.63;100.00
5574;BME280;2563;52.242;7.956;2023-03-18T04:18:34;99162.56;;;10.63;100.00
5574;BME280;2563;52.242;7.956;2023-03-18T04:20:59;99160.13;;;10.60;100.00
5574;BME280;2563;52.242;7.956;2023-03-18T04:23:25;99159.38;;;10.58;100.00
5574;BME280;2563;52.242;7.956;2023-03-18T04:25:51;99153.41;;;10.57;100.00
5574;BME280;2563;52.242;7.956;2023-03-18T04:28:16;99149.22;;;10.55;100.00
5574;BME280;2563;52.242;7.956;2023-03-18T04:30:42;99134.63;;;10.55;100.00
5574;BME280;2563;52.242;7.956;2023-03-18T04:33:07;99126.13;;;10.53;100.00
5574;BME280;2563;52.242;7.956;2023-03-18T04:35:34;99121.09;;;10.52;100.00
5574;BME280;2563;52.242;7.956;2023-03-18T04:38:00;99110.03;;;10.50;100.00
5574;BME280;2563;52.242;7.956;2023-03-18T04:40:25;99091.25;;;10.48;100.00
5574;BME280;2563;52.242;7.956;2023-03-18T04:42:52;99087.09;;;10.45;100.00
5574;BME280;2563;52.242;7.956;2023-03-18T04:45:17;99080.41;;;10.41;100.00
5574;BME280;2563;52.242;7.956;2023-03-18T04:47:44;99077.03;;;10.40;100.00
5574;BME280;2563;52.242;7.956;2023-03-18T04:50:11;99060.81;;;10.38;100.00
5574;BME280;2563;52.242;7.956;2023-03-18T04:52:38;99050.53;;;10.38;100.00
5574;BME280;2563;52.242;7.956;2023-03-18T04:55:05;99045.69;;;10.32;100.00
5574;BME280;2563;52.242;7.956;2023-03-18T04:57:30;99022.69;;;10.29;100.00
5574;BME280;2563;52.242;7.956;2023-03-18T04:59:56;99018.31;;;10.31;100.00
5574;BME280;2563;52.242;7.956;2023-03-18T05:02:22;98998.28;;;10.38;100.00
5574;BME280;2563;52.242;7.956;2023-03-18T05:04:48;98982.78;;;10.39;100.00
5574;BME280;2563;52.242;7.956;2023-03-18T05:07:14;98960.53;;;10.38;100.00
5574;BME280;2563;52.242;7.956;2023-03-18T05:09:40;98951.16;;;10.37;100.00
5574;BME280;2563;52.242;7.956;2023-03-18T05:12:10;98948.47;;;10.39;100.00
5574;BME280;2563;52.242;7.956;2023-03-18T05:14:37;98938.91;;;10.42;100.00
5574;BME280;2563;52.242;7.956;2023-03-18T05:17:03;98925.44;;;10.37;100.00
5574;BME280;2563;52.242;7.956;2023-03-18T05:19:28;98917.63;;;10.39;100.00
5574;BME280;2563;52.242;7.956;2023-03-18T05:21:54;98908.19;;;10.39;100.00
5574;BME280;2563;52.242;7.956;2023-03-18T05:24:19;98907.03;;;10.45;100.00
5574;BME280;2563;52.242;7.956;2023-03-18T05:26:45;98901.91;;;10.45;100.00
5574;BME280;2563;52.242;7.956;2023-03-18T05:29:10;98882.16;;;10.46;100.00
5574;BME280;2563;52.242;7.956;2023-03-18T05:31:36;98882.16;;;10.46;100.00
5574;BME280;2563;52.242;7.956;2023-03-18T05:34:01;98867.53;;;10.46;100.00
5574;BME280;2563;52.242;7.956;2023-03-18T05:36:26;98864.66;;;10.52;100.00
5574;BME280;2563;52.242;7.956;2023-03-18T05:38:53;98859.34;;;10.55;100.00
5574;BME280;2563;52.242;7.956;2023-03-18T05:41:19;98843.34;;;10.50;100.00
5574;BME280;2563;52.242;7.956;2023-03-18T05:43:44;98850.22;;;10.50;100.00
5574;BME280;2563;52.242;7.956;2023-03-18T05:46:10;98847.81;;;10.47;100.00
5574;BME280;2563;52.242;7.956;2023-03-18T05:48:35;98847.81;;;10.47;100.00
5574;BME280;2563;52.242;7.956;2023-03-18T05:51:01;98840.16;;;10.45;100.00
5574;BME280;2563;52.242;7.956;2023-03-18T05:53:28;98838.44;;;10.46;100.00
5574;BME280;2563;52.242;7.956;2023-03-18T05:55:56;98831.47;;;10.48;100.00
5574;BME280;2563;52.242;7.956;2023-03-18T05:58:22;98827.38;;;10.43;100.00
5574;BME280;2563;52.242;7.956;2023-03-18T06:00:48;98813.63;;;10.45;100.00
5574;BME280;2563;52.242;7.956;2023-03-18T06:03:14;98802.41;;;10.46;100.00
5574;BME280;2563;52.242;7.956;2023-03-18T06:05:41;98800.75;;;10.45;100.00
5574;BME280;2563;52.242;7.956;2023-03-18T06:08:06;98788.81;;;10.43;100.00
5574;BME280;2563;52.242;7.956;2023-03-18T06:10:35;98784.59;;;10.42;100.00
5574;BME280;2563;52.242;7.956;2023-03-18T06:13:00;98779.25;;;10.46;100.00
5574;BME280;2563;52.242;7.956;2023-03-18T06:15:25;98780.03;;;10.48;100.00
5574;BME280;2563;52.242;7.956;2023-03-18T06:17:51;98773.81;;;10.52;100.00
5574;BME280;2563;52.242;7.956;2023-03-18T06:20:16;98755.81;;;10.52;100.00
5574;BME280;2563;52.242;7.956;2023-03-18T06:22:44;98754.72;;;10.56;100.00
5574;BME280;2563;52.242;7.956;2023-03-18T06:25:14;98746.09;;;10.57;100.00
5574;BME280;2563;52.242;7.956;2023-03-18T06:27:39;98740.97;;;10.57;100.00
5574;BME280;2563;52.242;7.956;2023-03-18T06:30:05;98743.53;;;10.57;100.00
5574;BME280;2563;52.242;7.956;2023-03-18T06:32:31;98735.06;;;10.55;100.00
5574;BME280;2563;52.242;7.956;2023-03-18T06:34:58;98740.97;;;10.57;100.00
5574;BME280;2563;52.242;7.956;2023-03-18T06:37:23;98730.84;;;10.54;100.00
5574;BME280;2563;52.242;7.956;2023-03-18T06:39:48;98727.34;;;10.55;100.00
5574;BME280;2563;52.242;7.956;2023-03-18T06:42:14;98711.25;;;10.51;100.00
5574;BME280;2563;52.242;7.956;2023-03-18T06:44:39;98698.88;;;10.42;100.00
5574;BME280;2563;52.242;7.956;2023-03-18T06:47:08;98669.34;;;10.33;100.00
5574;BME280;2563;52.242;7.956;2023-03-18T06:49:34;98644.56;;;10.32;100.00
5574;BME280;2563;52.242;7.956;2023-03-18T06:52:00;98601.84;;;10.30;100.00
5574;BME280;2563;52.242;7.956;2023-03-18T06:54:26;98565.06;;;10.28;100.00
5574;BME280;2563;52.242;7.956;2023-03-18T06:56:52;98527.56;;;10.23;100.00
5574;BME280;2563;52.242;7.956;2023-03-18T06:59:18;98475.34;;;10.23;100.00
5574;BME280;2563;52.242;7.956;2023-03-18T07:01:45;98417.84;;;10.24;100.00
5574;BME280;2563;52.242;7.956;2023-03-18T07:04:10;98357.97;;;10.22;100.00
5574;BME280;2563;52.242;7.956;2023-03-18T07:06:36;98317.50;;;10.26;100.00
5574;BME280;2563;52.242;7.956;2023-03-18T07:09:02;98282.34;;;10.26;100.00
5574;BME280;2563;52.242;7.956;2023-03-18T07:11:28;98241.03;;;10.29;100.00
5574;BME280;2563;52.242;7.956;2023-03-18T07:13:54;98187.78;;;10.31;100.00
5574;BME280;2563;52.242;7.956;2023-03-18T07:16:19;98149.97;;;10.33;100.00
5574;BME280;2563;52.242;7.956;2023-03-18T07:18:44;98136.00;;;10.37;100.00
5574;BME280;2563;52.242;7.956;2023-03-18T07:21:10;98105.03;;;10.39;100.00
5574;BME280;2563;52.242;7.956;2023-03-18T07:23:37;98070.50;;;10.43;100.00
5574;BME280;2563;52.242;7.956;2023-03-18T07:26:03;98059.19;;;10.46;100.00
5574;BME280;2563;52.242;7.956;2023-03-18T07:28:28;98001.81;;;10.58;100.00
5574;BME280;2563;52.242;7.956;2023-03-18T07:30:54;97997.91;;;10.65;100.00
5574;BME280;2563;52.242;7.956;2023-03-18T07:33:20;97995.91;;;10.83;100.00
5574;BME280;2563;52.242;7.956;2023-03-18T07:35:46;97992.09;;;10.76;100.00
5574;BME280;2563;52.242;7.956;2023-03-18T07:38:12;97989.09;;;10.69;100.00
5574;BME280;2563;52.242;7.956;2023-03-18T07:40:37;97982.91;;;10.72;100.00
5574;BME280;2563;52.242;7.956;2023-03-18T07:43:04;97976.84;;;10.85;100.00
5574;BME280;2563;52.242;7.956;2023-03-18T07:45:30;97958.41;;;11.17;100.00
5574;BME280;2563;52.242;7.956;2023-03-18T07:47:55;97962.66;;;11.55;100.00
5574;BME280;2563;52.242;7.956;2023-03-18T07:50:21;97951.66;;;11.77;100.00
5574;BME280;2563;52.242;7.956;2023-03-18T07:52:46;97943.16;;;12.01;100.00
5574;BME280;2563;52.242;7.956;2023-03-18T07:55:12;97932.16;;;12.34;100.00
5574;BME280;2563;52.242;7.956;2023-03-18T07:57:38;97930.16;;;12.38;100.00
5574;BME280;2563;52.242;7.956;2023-03-18T08:00:05;97947.81;;;12.55;100.00
5574;BME280;2563;52.242;7.956;2023-03-18T08:02:30;97960.16;;;12.74;100.00
5574;BME280;2563;52.242;7.956;2023-03-18T08:04:56;97943.06;;;13.40;100.00
5574;BME280;2563;52.242;7.956;2023-03-18T08:07:21;97961.38;;;13.60;100.00
5574;BME280;2563;52.242;7.956;2023-03-18T08:09:48;98003.53;;;13.60;100.00
5574;BME280;2563;52.242;7.956;2023-03-18T08:12:15;98062.41;;;13.46;100.00
5574;BME280;2563;52.242;7.956;2023-03-18T08:14:40;98115.81;;;13.34;100.00
5574;BME280;2563;52.242;7.956;2023-03-18T08:17:07;98148.56;;;13.33;100.00
5574;BME280;2563;52.242;7.956;2023-03-18T08:19:33;98186.41;;;13.22;100.00
5574;BME280;2563;52.242;7.956;2023-03-18T08:21:58;98219.41;;;13.18;100.00
5574;BME280;2563;52.242;7.956;2023-03-18T08:24:24;98232.75;;;13.60;100.00
5574;BME280;2563;52.242;7.956;2023-03-18T08:26:49;98232.13;;;14.59;100.00
5574;BME280;2563;52.242;7.956;2023-03-18T08:29:14;98247.44;;;15.06;100.00
5574;BME280;2563;52.242;7.956;2023-03-18T08:31:40;98283.81;;;15.48;100.00
5574;BME280;2563;52.242;7.956;2023-03-18T08:34:06;98332.03;;;16.04;100.00
5574;BME280;2563;52.242;7.956;2023-03-18T08:36:31;98435.63;;;15.95;100.00
5574;BME280;2563;52.242;7.956;2023-03-18T08:38:56;98494.78;;;16.13;100.00
5574;BME280;2563;52.242;7.956;2023-03-18T08:41:22;98556.16;;;15.91;100.00
5574;BME280;2563;52.242;7.956;2023-03-18T08:43:50;98622.78;;;15.80;100.00
5574;BME280;2563;52.242;7.956;2023-03-18T08:46:17;98663.94;;;15.84;100.00
5574;BME280;2563;52.242;7.956;2023-03-18T08:48:43;98720.66;;;15.89;100.00
5574;BME280;2563;52.242;7.956;2023-03-18T08:51:08;98773.34;;;16.36;100.00
5574;BME280;2563;52.242;7.956;2023-03-18T08:53:35;98839.31;;;16.67;100.00
5574;BME280;2563;52.242;7.956;2023-03-18T08:56:02;98914.72;;;16.78;100.00
5574;BME280;2563;52.242;7.956;2023-03-18T08:58:28;98957.81;;;17.37;100.00
5574;BME280;2563;52.242;7.956;2023-03-18T09:00:54;99039.50;;;17.57;100.00
5574;BME280;2563;52.242;7.956;2023-03-18T09:03:20;99166.84;;;17.01;100.00
5574;BME280;2563;52.242;7.956;2023-03-18T09:05:49;99272.63;;;16.38;100.00
5574;BME280;2563;52.242;7.956;2023-03-18T09:08:14;99307.09;;;16.27;100.00
5574;BME280;2563;52.242;7.956;2023-03-18T09:10:40;99249.13;;;17.37;100.00
5574;BME280;2563;52.242;7.956;2023-03-18T09:13:06;99256.78;;;17.98;100.00
5574;BME280;2563;52.242;7.956;2023-03-18T09:15:32;99315.94;;;17.96;100.00
5574;BME280;2563;52.242;7.956;2023-03-18T09:17:58;99338.75;;;18.50;100.00
5574;BME280;2563;52.242;7.956;2023-03-18T09:20:24;99412.09;;;18.11;100.00
5574;BME280;2563;52.242;7.956;2023-03-18T09:22:50;99458.09;;;17.99;100.00
5574;BME280;2563;52.242;7.956;2023-03-18T09:25:17;99510.53;;;17.69;100.00
5574;BME280;2563;52.242;7.956;2023-03-18T09:27:42;99560.41;;;17.11;100.00
5574;BME280;2563;52.242;7.956;2023-03-18T09:30:08;99573.19;;;16.89;100.00
5574;BME280;2563;52.242;7.956;2023-03-18T09:32:34;99598.50;;;16.72;100.00
5574;BME280;2563;52.242;7.956;2023-03-18T09:34:59;99589.63;;;16.62;100.00
5574;BME280;2563;52.242;7.956;2023-03-18T09:37:25;99611.47;;;16.18;100.00
5574;BME280;2563;52.242;7.956;2023-03-18T09:39:50;99604.13;;;16.25;100.00
5574;BME280;2563;52.242;7.956;2023-03-18T09:44:58;99588.84;;;16.20;100.00
5574;BME280;2563;52.242;7.956;2023-03-18T09:52:57;99595.22;;;15.73;100.00
5574;BME280;2563;52.242;7.956;2023-03-18T09:55:45;99598.88;;;15.40;100.00
5574;BME280;2563;52.242;7.956;2023-03-18T09:58:22;99592.00;;;15.39;100.00
5574;BME280;2563;52.242;7.956;2023-03-18T10:00:59;99596.63;;;15.20;100.00
5574;BME280;2563;52.242;7.956;2023-03-18T10:03:42;99559.59;;;15.61;100.00
5574;BME280;2563;52.242;7.956;2023-03-18T10:06:15;99547.00;;;15.69;100.00
5574;BME280;2563;52.242;7.956;2023-03-18T10:11:29;99574.59;;;15.41;100.00
5574;BME280;2563;52.242;7.956;2023-03-18T10:14:18;99539.38;;;15.94;100.00
5574;BME280;2563;52.242;7.956;2023-03-18T10:19:20;99534.81;;;16.92;100.00
5574;BME280;2563;52.242;7.956;2023-03-18T10:21:56;99561.03;;;16.89;100.00
5574;BME280;2563;52.242;7.956;2023-03-18T10:24:31;99577.88;;;16.96;100.00
5574;BME280;2563;52.242;7.956;2023-03-18T10:27:13;99624.31;;;16.61;100.00
5574;BME280;2563;52.242;7.956;2023-03-18T10:32:33;99611.41;;;17.52;100.00
5574;BME280;2563;52.242;7.956;2023-03-18T10:37:40;99684.41;;;17.23;100.00
5574;BME280;2563;52.242;7.956;2023-03-18T10:40:15;99710.09;;;17.15;100.00
5574;BME280;2563;52.242;7.956;2023-03-18T10:42:41;99675.31;;;17.69;100.00
5574;BME280;2563;52.242;7.956;2023-03-18T10:45:26;99675.31;;;18.07;100.00
5574;BME280;2563;52.242;7.956;2023-03-18T10:47:57;99696.19;;;17.82;100.00
5574;BME280;2563;52.242;7.956;2023-03-18T10:50:41;99755.19;;;17.01;100.00
5574;BME280;2563;52.242;7.956;2023-03-18T10:53:22;99774.25;;;16.73;100.00
5574;BME280;2563;52.242;7.956;2023-03-18T10:56:11;99689.69;;;18.13;100.00
5574;BME280;2563;52.242;7.956;2023-03-18T10:58:41;99634.25;;;19.20;100.00
5574;BME280;2563;52.242;7.956;2023-03-18T11:01:09;99684.25;;;19.14;100.00
5574;BME280;2563;52.242;7.956;2023-03-18T11:03:46;99767.50;;;18.31;100.00
5574;BME280;2563;52.242;7.956;2023-03-18T11:06:18;99737.97;;;18.92;100.00
5574;BME280;2563;52.242;7.956;2023-03-18T11:08:48;99762.66;;;18.63;100.00
5574;BME280;2563;52.242;7.956;2023-03-18T11:11:26;99773.28;;;18.60;100.00
5574;BME280;2563;52.242;7.956;2023-03-18T11:13:54;99750.50;;;19.36;100.00
5574;BME280;2563;52.242;7.956;2023-03-18T11:18:49;99702.91;;;20.46;100.00
5574;BME280;2563;52.242;7.956;2023-03-18T11:21:17;99741.06;;;20.37;100.00
5574;BME280;2563;52.242;7.956;2023-03-18T11:23:51;99825.09;;;19.86;100.00
5574;BME280;2563;52.242;7.956;2023-03-18T11:26:53;99938.69;;;18.94;100.00
5574;BME280;2563;52.242;7.956;2023-03-18T11:29:24;99992.31;;;18.33;100.00
5574;BME280;2563;52.242;7.956;2023-03-18T11:31:53;100031.44;;;17.91;100.00
5574;BME280;2563;52.242;7.956;2023-03-18T11:34:22;100053.00;;;17.64;100.00
5574;BME280;2563;52.242;7.956;2023-03-18T11:36:58;100058.22;;;17.50;100.00
5574;BME280;2563;52.242;7.956;2023-03-18T11:39:29;100044.97;;;18.11;100.00
5574;BME280;2563;52.242;7.956;2023-03-18T11:41:57;100029.00;;;18.42;100.00
5574;BME280;2563;52.242;7.956;2023-03-18T11:44:31;100040.94;;;18.59;100.00
5574;BME280;2563;52.242;7.956;2023-03-18T11:47:08;100060.06;;;18.45;100.00
5574;BME280;2563;52.242;7.956;2023-03-18T11:49:35;99972.00;;;19.90;100.00
5574;BME280;2563;52.242;7.956;2023-03-18T11:52:28;100039.75;;;19.42;100.00
5574;BME280;2563;52.242;7.956;2023-03-18T12:06:21;100235.66;;;18.16;100.00
5574;BME280;2563;52.242;7.956;2023-03-18T12:19:33;100291.38;;;19.39;100.00
5574;BME280;2563;52.242;7.956;2023-03-18T12:22:24;100344.19;;;19.97;100.00
5574;BME280;2563;52.242;7.956;2023-03-18T12:35:48;100353.34;;;20.92;100.00
5574;BME280;2563;52.242;7.956;2023-03-18T12:43:31;100357.72;;;21.65;100.00
5574;BME280;2563;52.242;7.956;2023-03-18T12:46:25;100368.72;;;21.82;100.00
5574;BME280;2563;52.242;7.956;2023-03-18T12:49:20;100379.19;;;21.34;100.00
5574;BME280;2563;52.242;7.956;2023-03-18T12:52:00;100383.81;;;21.67;100.00
5574;BME280;2563;52.242;7.956;2023-03-18T12:54:30;100384.56;;;21.80;100.00
5574;BME280;2563;52.242;7.956;2023-03-18T12:57:01;100388.34;;;21.52;100.00
5574;BME280;2563;52.242;7.956;2023-03-18T13:02:37;100398.28;;;21.84;100.00
5574;BME280;2563;52.242;7.956;2023-03-18T13:05:12;100398.44;;;22.05;100.00
5574;BME280;2563;52.242;7.956;2023-03-18T13:07:50;100384.38;;;21.95;100.00
5574;BME280;2563;52.242;7.956;2023-03-18T13:10:21;100391.66;;;20.93;100.00
5574;BME280;2563;52.242;7.956;2023-03-18T13:12:53;100392.97;;;20.62;100.00
5574;BME280;2563;52.242;7.956;2023-03-18T13:15:39;100393.31;;;20.94;100.00
5574;BME280;2563;52.242;7.956;2023-03-18T13:18:18;100387.72;;;21.12;100.00
5574;BME280;2563;52.242;7.956;2023-03-18T13:20:46;100399.50;;;20.42;100.00
5574;BME280;2563;52.242;7.956;2023-03-18T13:26:10;100393.63;;;20.00;100.00
5574;BME280;2563;52.242;7.956;2023-03-18T13:28:45;100392.78;;;20.00;100.00
5574;BME280;2563;52.242;7.956;2023-03-18T13:34:44;100386.56;;;21.16;100.00
5574;BME280;2563;52.242;7.956;2023-03-18T13:37:54;100376.31;;;21.50;100.00
5574;BME280;2563;52.242;7.956;2023-03-18T13:42:57;100369.63;;;21.09;100.00
5574;BME280;2563;52.242;7.956;2023-03-18T13:45:53;100360.56;;;22.09;100.00
5574;BME280;2563;52.242;7.956;2023-03-18T13:48:42;100363.19;;;21.62;100.00
5574;BME280;2563;52.242;7.956;2023-03-18T13:51:50;100368.94;;;20.94;100.00
5574;BME280;2563;52.242;7.956;2023-03-18T13:54:18;100370.66;;;21.19;100.00
5574;BME280;2563;52.242;7.956;2023-03-18T13:56:52;100379.13;;;20.47;100.00
5574;BME280;2563;52.242;7.956;2023-03-18T14:02:21;100388.84;;;19.80;100.00
5574;BME280;2563;52.242;7.956;2023-03-18T14:04:46;100396.13;;;19.20;100.00
5574;BME280;2563;52.242;7.956;2023-03-18T14:07:18;100387.41;;;18.78;100.00
5574;BME280;2563;52.242;7.956;2023-03-18T14:22:39;100382.50;;;18.43;100.00
5574;BME280;2563;52.242;7.956;2023-03-18T14:28:11;100377.28;;;18.29;100.00
5574;BME280;2563;52.242;7.956;2023-03-18T14:30:46;100372.53;;;18.36;100.00
5574;BME280;2563;52.242;7.956;2023-03-18T14:35:57;100371.13;;;19.30;100.00
5574;BME280;2563;52.242;7.956;2023-03-18T14:38:25;100360.16;;;19.65;100.00
5574;BME280;2563;52.242;7.956;2023-03-18T14:40:55;100362.13;;;19.89;100.00
5574;BME280;2563;52.242;7.956;2023-03-18T14:43:27;100351.50;;;20.05;100.00
5574;BME280;2563;52.242;7.956;2023-03-18T14:46:00;100353.28;;;19.64;100.00
5574;BME280;2563;52.242;7.956;2023-03-18T14:48:30;100349.06;;;19.76;100.00
5574;BME280;2563;52.242;7.956;2023-03-18T14:51:02;100344.00;;;19.46;100.00
5574;BME280;2563;52.242;7.956;2023-03-18T14:53:36;100345.94;;;19.57;100.00
5574;BME280;2563;52.242;7.956;2023-03-18T14:56:03;100340.88;;;19.13;100.00
5574;BME280;2563;52.242;7.956;2023-03-18T14:58:29;100331.25;;;18.87;100.00